sensor_id;sensor_type;location;lat;lon;timestamp;P1;durP1;ratioP1;P2;durP2;ratioP2
36457;SDS011;22480;50.546;12.292;2023-06-14T00:01:45;6.97;;;5.05;;
36457;SDS011;22480;50.546;12.292;2023-06-14T00:04:11;9.02;;;5.72;;
36457;SDS011;22480;50.546;12.292;2023-06-14T00:06:38;8.90;;;5.20;;
36457;SDS011;22480;50.546;12.292;2023-06-14T00:09:04;8.05;;;5.55;;
36457;SDS011;22480;50.546;12.292;2023-06-14T00:11:33;11.00;;;5.68;;
36457;SDS011;22480;50.546;12.292;2023-06-14T00:13:59;11.32;;;6.00;;
36457;SDS011;22480;50.546;12.292;2023-06-14T00:16:25;7.97;;;5.75;;
36457;SDS011;22480;50.546;12.292;2023-06-14T00:18:50;13.45;;;5.97;;
36457;SDS011;22480;50.546;12.292;2023-06-14T00:21:17;9.68;;;5.28;;
36457;SDS011;22480;50.546;12.292;2023-06-14T00:23:43;8.80;;;5.93;;
36457;SDS011;22480;50.546;12.292;2023-06-14T00:26:08;10.63;;;6.28;;
36457;SDS011;22480;50.546;12.292;2023-06-14T00:28:35;8.50;;;6.20;;
36457;SDS011;22480;50.546;12.292;2023-06-14T00:31:00;10.00;;;5.40;;
36457;SDS011;22480;50.546;12.292;2023-06-14T00:33:27;6.18;;;4.95;;
36457;SDS011;22480;50.546;12.292;2023-06-14T00:35:53;7.60;;;5.32;;
36457;SDS011;22480;50.546;12.292;2023-06-14T00:38:19;7.53;;;5.65;;
36457;SDS011;22480;50.546;12.292;2023-06-14T00:40:46;9.25;;;6.03;;
36457;SDS011;22480;50.546;12.292;2023-06-14T00:43:12;8.98;;;5.93;;
36457;SDS011;22480;50.546;12.292;2023-06-14T00:45:38;7.57;;;5.97;;
36457;SDS011;22480;50.546;12.292;2023-06-14T00:48:04;9.15;;;5.40;;
36457;SDS011;22480;50.546;12.292;2023-06-14T00:50:32;6.95;;;6.03;;
36457;SDS011;22480;50.546;12.292;2023-06-14T00:53:02;7.88;;;6.15;;
36457;SDS011;22480;50.546;12.292;2023-06-14T00:55:28;9.73;;;6.35;;
36457;SDS011;22480;50.546;12.292;2023-06-14T00:57:54;7.93;;;5.57;;
36457;SDS011;22480;50.546;12.292;2023-06-14T01:00:21;8.68;;;5.60;;
36457;SDS011;22480;50.546;12.292;2023-06-14T01:02:47;9.63;;;6.47;;
36457;SDS011;22480;50.546;12.292;2023-06-14T01:05:14;6.60;;;5.88;;
36457;SDS011;22480;50.546;12.292;2023-06-14T01:11:05;9.32;;;6.28;;
36457;SDS011;22480;50.546;12.292;2023-06-14T01:13:38;7.32;;;6.20;;
36457;SDS011;22480;50.546;12.292;2023-06-14T01:16:06;8.73;;;6.03;;
36457;SDS011;22480;50.546;12.292;2023-06-14T01:18:40;8.10;;;6.68;;
36457;SDS011;22480;50.546;12.292;2023-06-14T01:21:15;7.65;;;6.05;;
36457;SDS011;22480;50.546;12.292;2023-06-14T01:23:51;8.90;;;5.63;;
36457;SDS011;22480;50.546;12.292;2023-06-14T01:26:21;12.93;;;6.97;;
36457;SDS011;22480;50.546;12.292;2023-06-14T01:28:48;7.93;;;6.22;;
36457;SDS011;22480;50.546;12.292;2023-06-14T01:31:19;8.55;;;5.85;;
36457;SDS011;22480;50.546;12.292;2023-06-14T01:33:51;7.13;;;6.15;;
36457;SDS011;22480;50.546;12.292;2023-06-14T01:36:21;8.88;;;6.55;;
36457;SDS011;22480;50.546;12.292;2023-06-14T01:38:48;7.88;;;6.30;;
36457;SDS011;22480;50.546;12.292;2023-06-14T01:41:18;11.48;;;6.40;;
36457;SDS011;22480;50.546;12.292;2023-06-14T01:43:46;7.25;;;6.32;;
36457;SDS011;22480;50.546;12.292;2023-06-14T01:46:14;8.35;;;6.15;;
36457;SDS011;22480;50.546;12.292;2023-06-14T01:48:40;10.38;;;6.63;;
36457;SDS011;22480;50.546;12.292;2023-06-14T01:51:06;8.02;;;6.75;;
36457;SDS011;22480;50.546;12.292;2023-06-14T01:53:32;9.90;;;7.15;;
36457;SDS011;22480;50.546;12.292;2023-06-14T01:55:58;8.25;;;7.30;;
36457;SDS011;22480;50.546;12.292;2023-06-14T01:58:24;8.30;;;7.38;;
36457;SDS011;22480;50.546;12.292;2023-06-14T02:00:49;8.77;;;7.10;;
36457;SDS011;22480;50.546;12.292;2023-06-14T02:03:16;11.40;;;7.57;;
36457;SDS011;22480;50.546;12.292;2023-06-14T02:05:42;12.00;;;7.68;;
36457;SDS011;22480;50.546;12.292;2023-06-14T02:08:08;11.27;;;7.85;;
36457;SDS011;22480;50.546;12.292;2023-06-14T02:10:34;9.30;;;6.57;;
36457;SDS011;22480;50.546;12.292;2023-06-14T02:12:59;8.02;;;6.90;;
36457;SDS011;22480;50.546;12.292;2023-06-14T02:15:25;9.45;;;7.43;;
36457;SDS011;22480;50.546;12.292;2023-06-14T02:18:00;9.35;;;6.95;;
36457;SDS011;22480;50.546;12.292;2023-06-14T02:20:27;12.32;;;7.85;;
36457;SDS011;22480;50.546;12.292;2023-06-14T02:22:53;10.45;;;7.43;;
36457;SDS011;22480;50.546;12.292;2023-06-14T02:25:19;10.20;;;8.00;;
36457;SDS011;22480;50.546;12.292;2023-06-14T02:27:45;8.63;;;7.72;;
36457;SDS011;22480;50.546;12.292;2023-06-14T02:30:10;10.10;;;7.50;;
36457;SDS011;22480;50.546;12.292;2023-06-14T02:32:37;10.57;;;7.50;;
36457;SDS011;22480;50.546;12.292;2023-06-14T02:35:04;9.32;;;8.32;;
36457;SDS011;22480;50.546;12.292;2023-06-14T02:37:30;11.68;;;7.55;;
36457;SDS011;22480;50.546;12.292;2023-06-14T02:39:56;10.05;;;8.23;;
36457;SDS011;22480;50.546;12.292;2023-06-14T02:42:22;12.55;;;8.27;;
36457;SDS011;22480;50.546;12.292;2023-06-14T02:44:48;23.30;;;9.02;;
36457;SDS011;22480;50.546;12.292;2023-06-14T02:47:16;9.95;;;8.65;;
36457;SDS011;22480;50.546;12.292;2023-06-14T02:49:43;13.88;;;8.90;;
36457;SDS011;22480;50.546;12.292;2023-06-14T02:52:09;11.15;;;8.68;;
36457;SDS011;22480;50.546;12.292;2023-06-14T02:54:34;10.98;;;8.82;;
36457;SDS011;22480;50.546;12.292;2023-06-14T02:57:01;8.88;;;7.97;;
36457;SDS011;22480;50.546;12.292;2023-06-14T02:59:27;10.07;;;7.43;;
36457;SDS011;22480;50.546;12.292;2023-06-14T03:01:54;9.90;;;8.10;;
36457;SDS011;22480;50.546;12.292;2023-06-14T03:04:20;19.13;;;9.45;;
36457;SDS011;22480;50.546;12.292;2023-06-14T03:06:46;13.25;;;9.48;;
36457;SDS011;22480;50.546;12.292;2023-06-14T03:09:17;15.23;;;9.50;;
36457;SDS011;22480;50.546;12.292;2023-06-14T03:11:43;11.88;;;8.90;;
36457;SDS011;22480;50.546;12.292;2023-06-14T03:14:09;12.73;;;9.15;;
36457;SDS011;22480;50.546;12.292;2023-06-14T03:16:37;11.77;;;9.30;;
36457;SDS011;22480;50.546;12.292;2023-06-14T03:19:03;11.23;;;8.55;;
36457;SDS011;22480;50.546;12.292;2023-06-14T03:21:31;10.82;;;9.00;;
36457;SDS011;22480;50.546;12.292;2023-06-14T03:23:59;14.57;;;9.63;;
36457;SDS011;22480;50.546;12.292;2023-06-14T03:26:25;12.57;;;9.52;;
36457;SDS011;22480;50.546;12.292;2023-06-14T03:28:54;10.68;;;9.27;;
36457;SDS011;22480;50.546;12.292;2023-06-14T03:31:21;10.03;;;8.90;;
36457;SDS011;22480;50.546;12.292;2023-06-14T03:33:47;12.27;;;10.13;;
36457;SDS011;22480;50.546;12.292;2023-06-14T03:36:14;10.10;;;8.67;;
36457;SDS011;22480;50.546;12.292;2023-06-14T03:38:40;11.45;;;8.90;;
36457;SDS011;22480;50.546;12.292;2023-06-14T03:41:05;13.82;;;9.27;;
36457;SDS011;22480;50.546;12.292;2023-06-14T03:43:31;12.43;;;9.52;;
36457;SDS011;22480;50.546;12.292;2023-06-14T03:45:59;10.43;;;8.75;;
36457;SDS011;22480;50.546;12.292;2023-06-14T03:48:26;11.80;;;8.75;;
36457;SDS011;22480;50.546;12.292;2023-06-14T03:50:52;12.05;;;8.70;;
36457;SDS011;22480;50.546;12.292;2023-06-14T03:53:20;10.00;;;8.23;;
36457;SDS011;22480;50.546;12.292;2023-06-14T03:55:49;11.18;;;8.27;;
36457;SDS011;22480;50.546;12.292;2023-06-14T03:58:18;10.40;;;8.20;;
36457;SDS011;22480;50.546;12.292;2023-06-14T04:00:45;9.18;;;7.63;;
36457;SDS011;22480;50.546;12.292;2023-06-14T04:03:11;9.10;;;7.70;;
36457;SDS011;22480;50.546;12.292;2023-06-14T04:05:38;9.10;;;7.65;;
36457;SDS011;22480;50.546;12.292;2023-06-14T04:08:10;9.50;;;7.22;;
36457;SDS011;22480;50.546;12.292;2023-06-14T04:10:39;8.45;;;7.45;;
36457;SDS011;22480;50.546;12.292;2023-06-14T04:13:05;10.80;;;7.70;;
36457;SDS011;22480;50.546;12.292;2023-06-14T04:15:32;10.43;;;8.15;;
36457;SDS011;22480;50.546;12.292;2023-06-14T04:17:59;7.70;;;6.43;;
36457;SDS011;22480;50.546;12.292;2023-06-14T04:20:25;7.45;;;6.65;;
36457;SDS011;22480;50.546;12.292;2023-06-14T04:22:51;6.85;;;6.05;;
36457;SDS011;22480;50.546;12.292;2023-06-14T04:25:18;6.13;;;5.47;;
36457;SDS011;22480;50.546;12.292;2023-06-14T04:27:44;5.90;;;5.38;;
36457;SDS011;22480;50.546;12.292;2023-06-14T04:30:10;11.93;;;5.47;;
36457;SDS011;22480;50.546;12.292;2023-06-14T04:32:41;5.53;;;4.32;;
36457;SDS011;22480;50.546;12.292;2023-06-14T04:35:10;7.57;;;4.60;;
36457;SDS011;22480;50.546;12.292;2023-06-14T04:37:38;7.32;;;4.78;;
36457;SDS011;22480;50.546;12.292;2023-06-14T04:40:06;5.22;;;4.72;;
36457;SDS011;22480;50.546;12.292;2023-06-14T04:42:34;11.10;;;5.50;;
36457;SDS011;22480;50.546;12.292;2023-06-14T04:45:04;8.00;;;5.57;;
36457;SDS011;22480;50.546;12.292;2023-06-14T04:47:30;5.65;;;4.75;;
36457;SDS011;22480;50.546;12.292;2023-06-14T04:49:57;6.20;;;4.53;;
36457;SDS011;22480;50.546;12.292;2023-06-14T04:52:23;4.75;;;4.25;;
36457;SDS011;22480;50.546;12.292;2023-06-14T04:54:53;6.78;;;4.13;;
36457;SDS011;22480;50.546;12.292;2023-06-14T04:57:20;6.03;;;4.75;;
36457;SDS011;22480;50.546;12.292;2023-06-14T04:59:48;5.55;;;4.47;;
36457;SDS011;22480;50.546;12.292;2023-06-14T05:02:20;5.85;;;4.47;;
36457;SDS011;22480;50.546;12.292;2023-06-14T05:04:47;6.20;;;4.13;;
36457;SDS011;22480;50.546;12.292;2023-06-14T05:07:13;4.45;;;3.83;;
36457;SDS011;22480;50.546;12.292;2023-06-14T05:09:40;4.95;;;3.92;;
36457;SDS011;22480;50.546;12.292;2023-06-14T05:12:06;6.63;;;4.75;;
36457;SDS011;22480;50.546;12.292;2023-06-14T05:14:35;3.83;;;3.53;;
36457;SDS011;22480;50.546;12.292;2023-06-14T05:17:01;7.03;;;4.30;;
36457;SDS011;22480;50.546;12.292;2023-06-14T05:19:27;6.68;;;4.50;;
36457;SDS011;22480;50.546;12.292;2023-06-14T05:21:54;9.52;;;4.68;;
36457;SDS011;22480;50.546;12.292;2023-06-14T05:24:19;6.00;;;4.50;;
36457;SDS011;22480;50.546;12.292;2023-06-14T05:26:46;5.82;;;3.83;;
36457;SDS011;22480;50.546;12.292;2023-06-14T05:29:12;6.20;;;3.63;;
36457;SDS011;22480;50.546;12.292;2023-06-14T05:31:37;5.85;;;4.18;;
36457;SDS011;22480;50.546;12.292;2023-06-14T05:34:03;6.93;;;4.63;;
36457;SDS011;22480;50.546;12.292;2023-06-14T05:36:29;5.93;;;4.40;;
36457;SDS011;22480;50.546;12.292;2023-06-14T05:38:55;8.80;;;4.40;;
36457;SDS011;22480;50.546;12.292;2023-06-14T05:41:26;5.03;;;3.58;;
36457;SDS011;22480;50.546;12.292;2023-06-14T05:43:53;6.75;;;4.03;;
36457;SDS011;22480;50.546;12.292;2023-06-14T05:46:19;5.75;;;3.95;;
36457;SDS011;22480;50.546;12.292;2023-06-14T05:48:50;6.65;;;3.75;;
36457;SDS011;22480;50.546;12.292;2023-06-14T05:51:16;4.70;;;4.13;;
36457;SDS011;22480;50.546;12.292;2023-06-14T05:53:46;5.63;;;4.00;;
36457;SDS011;22480;50.546;12.292;2023-06-14T05:56:12;5.07;;;4.20;;
36457;SDS011;22480;50.546;12.292;2023-06-14T05:58:38;5.35;;;4.15;;
36457;SDS011;22480;50.546;12.292;2023-06-14T06:01:04;4.78;;;4.25;;
36457;SDS011;22480;50.546;12.292;2023-06-14T06:03:30;5.03;;;4.53;;
36457;SDS011;22480;50.546;12.292;2023-06-14T06:05:56;9.70;;;4.30;;
36457;SDS011;22480;50.546;12.292;2023-06-14T06:08:21;5.20;;;4.43;;
36457;SDS011;22480;50.546;12.292;2023-06-14T06:10:47;5.53;;;4.38;;
36457;SDS011;22480;50.546;12.292;2023-06-14T06:13:13;4.93;;;3.45;;
36457;SDS011;22480;50.546;12.292;2023-06-14T06:15:38;8.18;;;4.68;;
36457;SDS011;22480;50.546;12.292;2023-06-14T06:18:04;4.93;;;3.97;;
36457;SDS011;22480;50.546;12.292;2023-06-14T06:20:30;6.80;;;4.55;;
36457;SDS011;22480;50.546;12.292;2023-06-14T06:22:57;4.22;;;3.72;;
36457;SDS011;22480;50.546;12.292;2023-06-14T06:25:24;5.47;;;4.18;;
36457;SDS011;22480;50.546;12.292;2023-06-14T06:27:51;6.85;;;4.35;;
36457;SDS011;22480;50.546;12.292;2023-06-14T06:30:18;5.28;;;4.47;;
36457;SDS011;22480;50.546;12.292;2023-06-14T06:32:44;4.50;;;4.10;;
36457;SDS011;22480;50.546;12.292;2023-06-14T06:35:11;5.82;;;3.92;;
36457;SDS011;22480;50.546;12.292;2023-06-14T06:37:38;5.68;;;4.75;;
36457;SDS011;22480;50.546;12.292;2023-06-14T06:40:05;13.85;;;4.47;;
36457;SDS011;22480;50.546;12.292;2023-06-14T06:42:34;6.55;;;4.85;;
36457;SDS011;22480;50.546;12.292;2023-06-14T06:45:03;6.65;;;4.20;;
36457;SDS011;22480;50.546;12.292;2023-06-14T06:47:29;6.90;;;4.20;;
36457;SDS011;22480;50.546;12.292;2023-06-14T06:49:55;5.88;;;4.45;;
36457;SDS011;22480;50.546;12.292;2023-06-14T06:52:20;5.90;;;4.22;;
36457;SDS011;22480;50.546;12.292;2023-06-14T06:54:46;5.20;;;4.13;;
36457;SDS011;22480;50.546;12.292;2023-06-14T06:57:12;7.40;;;4.65;;
36457;SDS011;22480;50.546;12.292;2023-06-14T06:59:37;6.80;;;4.05;;
36457;SDS011;22480;50.546;12.292;2023-06-14T07:02:03;5.68;;;4.05;;
36457;SDS011;22480;50.546;12.292;2023-06-14T07:04:30;5.00;;;4.30;;
36457;SDS011;22480;50.546;12.292;2023-06-14T07:06:56;10.82;;;5.55;;
36457;SDS011;22480;50.546;12.292;2023-06-14T07:09:22;8.13;;;4.65;;
36457;SDS011;22480;50.546;12.292;2023-06-14T07:11:49;6.82;;;4.10;;
36457;SDS011;22480;50.546;12.292;2023-06-14T07:14:14;5.45;;;4.03;;
36457;SDS011;22480;50.546;12.292;2023-06-14T07:16:40;5.32;;;3.45;;
36457;SDS011;22480;50.546;12.292;2023-06-14T07:19:06;5.07;;;3.90;;
36457;SDS011;22480;50.546;12.292;2023-06-14T07:21:32;3.60;;;3.30;;
36457;SDS011;22480;50.546;12.292;2023-06-14T07:23:57;3.60;;;3.28;;
36457;SDS011;22480;50.546;12.292;2023-06-14T07:26:23;4.88;;;3.42;;
36457;SDS011;22480;50.546;12.292;2023-06-14T07:28:50;7.50;;;3.50;;
36457;SDS011;22480;50.546;12.292;2023-06-14T07:31:16;5.50;;;3.88;;
36457;SDS011;22480;50.546;12.292;2023-06-14T07:33:43;4.72;;;3.03;;
36457;SDS011;22480;50.546;12.292;2023-06-14T07:36:09;3.88;;;3.10;;
36457;SDS011;22480;50.546;12.292;2023-06-14T07:38:34;3.80;;;2.90;;
36457;SDS011;22480;50.546;12.292;2023-06-14T07:41:01;4.18;;;2.60;;
36457;SDS011;22480;50.546;12.292;2023-06-14T07:43:27;3.92;;;3.15;;
36457;SDS011;22480;50.546;12.292;2023-06-14T07:45:53;8.60;;;3.90;;
36457;SDS011;22480;50.546;12.292;2023-06-14T07:48:18;3.63;;;2.85;;
36457;SDS011;22480;50.546;12.292;2023-06-14T07:50:44;4.75;;;3.13;;
36457;SDS011;22480;50.546;12.292;2023-06-14T07:53:10;5.35;;;4.07;;
36457;SDS011;22480;50.546;12.292;2023-06-14T07:55:36;4.10;;;3.67;;
36457;SDS011;22480;50.546;12.292;2023-06-14T07:58:08;5.15;;;4.22;;
36457;SDS011;22480;50.546;12.292;2023-06-14T08:00:34;7.20;;;4.35;;
36457;SDS011;22480;50.546;12.292;2023-06-14T08:03:00;5.75;;;3.75;;
36457;SDS011;22480;50.546;12.292;2023-06-14T08:05:26;4.28;;;3.70;;
36457;SDS011;22480;50.546;12.292;2023-06-14T08:07:53;3.97;;;3.35;;
36457;SDS011;22480;50.546;12.292;2023-06-14T08:10:19;5.85;;;4.03;;
36457;SDS011;22480;50.546;12.292;2023-06-14T08:12:46;8.40;;;3.90;;
36457;SDS011;22480;50.546;12.292;2023-06-14T08:15:11;4.47;;;3.38;;
36457;SDS011;22480;50.546;12.292;2023-06-14T08:17:37;5.55;;;3.83;;
36457;SDS011;22480;50.546;12.292;2023-06-14T08:20:03;6.68;;;4.35;;
36457;SDS011;22480;50.546;12.292;2023-06-14T08:22:30;5.57;;;3.80;;
36457;SDS011;22480;50.546;12.292;2023-06-14T08:24:59;6.95;;;4.10;;
36457;SDS011;22480;50.546;12.292;2023-06-14T08:27:26;5.72;;;3.47;;
36457;SDS011;22480;50.546;12.292;2023-06-14T08:29:52;4.15;;;3.45;;
36457;SDS011;22480;50.546;12.292;2023-06-14T08:32:17;5.55;;;4.20;;
36457;SDS011;22480;50.546;12.292;2023-06-14T08:34:43;13.65;;;3.60;;
36457;SDS011;22480;50.546;12.292;2023-06-14T08:37:09;4.13;;;3.55;;
36457;SDS011;22480;50.546;12.292;2023-06-14T08:39:34;5.95;;;2.97;;
36457;SDS011;22480;50.546;12.292;2023-06-14T08:42:01;5.43;;;3.28;;
36457;SDS011;22480;50.546;12.292;2023-06-14T08:44:28;7.35;;;3.80;;
36457;SDS011;22480;50.546;12.292;2023-06-14T08:46:59;3.40;;;2.97;;
36457;SDS011;22480;50.546;12.292;2023-06-14T08:51:57;3.35;;;3.08;;
36457;SDS011;22480;50.546;12.292;2023-06-14T08:54:26;5.03;;;2.72;;
36457;SDS011;22480;50.546;12.292;2023-06-14T08:56:55;2.80;;;2.60;;
36457;SDS011;22480;50.546;12.292;2023-06-14T08:59:24;4.10;;;3.22;;
36457;SDS011;22480;50.546;12.292;2023-06-14T09:01:52;5.85;;;2.78;;
36457;SDS011;22480;50.546;12.292;2023-06-14T09:04:19;5.00;;;3.13;;
36457;SDS011;22480;50.546;12.292;2023-06-14T09:06:47;3.05;;;2.53;;
36457;SDS011;22480;50.546;12.292;2023-06-14T09:09:18;3.55;;;2.72;;
36457;SDS011;22480;50.546;12.292;2023-06-14T09:11:53;4.03;;;2.78;;
36457;SDS011;22480;50.546;12.292;2023-06-14T09:14:23;8.70;;;3.53;;
36457;SDS011;22480;50.546;12.292;2023-06-14T09:16:54;5.32;;;2.90;;
36457;SDS011;22480;50.546;12.292;2023-06-14T09:19:23;6.20;;;2.67;;
36457;SDS011;22480;50.546;12.292;2023-06-14T09:24:17;3.22;;;2.72;;
36457;SDS011;22480;50.546;12.292;2023-06-14T09:26:46;3.85;;;2.60;;
36457;SDS011;22480;50.546;12.292;2023-06-14T09:29:12;4.47;;;3.33;;
36457;SDS011;22480;50.546;12.292;2023-06-14T09:31:38;6.53;;;3.60;;
36457;SDS011;22480;50.546;12.292;2023-06-14T09:34:04;5.45;;;3.38;;
36457;SDS011;22480;50.546;12.292;2023-06-14T09:36:31;3.55;;;2.55;;
36457;SDS011;22480;50.546;12.292;2023-06-14T09:38:58;7.40;;;2.90;;
36457;SDS011;22480;50.546;12.292;2023-06-14T09:41:38;4.18;;;3.17;;
36457;SDS011;22480;50.546;12.292;2023-06-14T09:44:06;4.75;;;2.60;;
36457;SDS011;22480;50.546;12.292;2023-06-14T09:46:33;3.35;;;2.55;;
36457;SDS011;22480;50.546;12.292;2023-06-14T09:49:01;4.80;;;2.25;;
36457;SDS011;22480;50.546;12.292;2023-06-14T09:51:28;3.90;;;2.53;;
36457;SDS011;22480;50.546;12.292;2023-06-14T09:54:00;4.38;;;2.30;;
36457;SDS011;22480;50.546;12.292;2023-06-14T09:56:30;3.92;;;2.80;;
36457;SDS011;22480;50.546;12.292;2023-06-14T09:58:56;6.82;;;2.97;;
36457;SDS011;22480;50.546;12.292;2023-06-14T10:01:27;6.05;;;3.22;;
36457;SDS011;22480;50.546;12.292;2023-06-14T10:03:58;5.00;;;3.40;;
36457;SDS011;22480;50.546;12.292;2023-06-14T10:06:28;6.30;;;2.80;;
36457;SDS011;22480;50.546;12.292;2023-06-14T10:08:56;5.78;;;3.17;;
36457;SDS011;22480;50.546;12.292;2023-06-14T10:11:25;2.88;;;2.67;;
36457;SDS011;22480;50.546;12.292;2023-06-14T10:13:51;3.28;;;2.90;;
36457;SDS011;22480;50.546;12.292;2023-06-14T10:21:41;3.63;;;2.60;;
36457;SDS011;22480;50.546;12.292;2023-06-14T10:24:23;5.05;;;2.72;;
36457;SDS011;22480;50.546;12.292;2023-06-14T10:26:59;3.17;;;2.72;;
36457;SDS011;22480;50.546;12.292;2023-06-14T10:29:26;3.47;;;2.38;;
36457;SDS011;22480;50.546;12.292;2023-06-14T10:31:57;6.70;;;3.22;;
36457;SDS011;22480;50.546;12.292;2023-06-14T10:34:24;3.55;;;2.35;;
36457;SDS011;22480;50.546;12.292;2023-06-14T10:37:05;4.07;;;2.90;;
36457;SDS011;22480;50.546;12.292;2023-06-14T10:39:37;7.47;;;3.30;;
36457;SDS011;22480;50.546;12.292;2023-06-14T10:42:06;3.80;;;2.78;;
36457;SDS011;22480;50.546;12.292;2023-06-14T10:44:33;4.30;;;3.28;;
36457;SDS011;22480;50.546;12.292;2023-06-14T10:49:58;6.82;;;2.97;;
36457;SDS011;22480;50.546;12.292;2023-06-14T10:57:45;5.32;;;2.40;;
36457;SDS011;22480;50.546;12.292;2023-06-14T11:00:16;3.65;;;3.17;;
36457;SDS011;22480;50.546;12.292;2023-06-14T11:02:51;3.10;;;2.80;;
36457;SDS011;22480;50.546;12.292;2023-06-14T11:08:30;4.13;;;2.15;;
36457;SDS011;22480;50.546;12.292;2023-06-14T11:11:05;2.95;;;2.50;;
36457;SDS011;22480;50.546;12.292;2023-06-14T11:13:32;8.10;;;2.40;;
36457;SDS011;22480;50.546;12.292;2023-06-14T11:15:58;7.38;;;2.70;;
36457;SDS011;22480;50.546;12.292;2023-06-14T11:18:24;3.00;;;2.70;;
36457;SDS011;22480;50.546;12.292;2023-06-14T11:20:50;4.53;;;2.17;;
36457;SDS011;22480;50.546;12.292;2023-06-14T11:23:16;2.70;;;2.50;;
36457;SDS011;22480;50.546;12.292;2023-06-14T11:25:41;5.15;;;2.92;;
36457;SDS011;22480;50.546;12.292;2023-06-14T11:28:07;4.10;;;2.35;;
36457;SDS011;22480;50.546;12.292;2023-06-14T11:30:33;3.97;;;2.65;;
36457;SDS011;22480;50.546;12.292;2023-06-14T11:32:59;2.92;;;2.42;;
36457;SDS011;22480;50.546;12.292;2023-06-14T11:35:25;4.70;;;2.85;;
36457;SDS011;22480;50.546;12.292;2023-06-14T11:37:54;4.68;;;2.80;;
36457;SDS011;22480;50.546;12.292;2023-06-14T11:40:25;5.35;;;3.25;;
36457;SDS011;22480;50.546;12.292;2023-06-14T11:45:27;5.65;;;2.50;;
36457;SDS011;22480;50.546;12.292;2023-06-14T11:47:55;4.35;;;2.33;;
36457;SDS011;22480;50.546;12.292;2023-06-14T11:50:21;7.93;;;2.97;;
36457;SDS011;22480;50.546;12.292;2023-06-14T11:52:57;4.93;;;2.63;;
36457;SDS011;22480;50.546;12.292;2023-06-14T11:55:38;3.13;;;2.20;;
36457;SDS011;22480;50.546;12.292;2023-06-14T11:58:05;4.13;;;2.80;;
36457;SDS011;22480;50.546;12.292;2023-06-14T12:00:31;2.28;;;2.08;;
36457;SDS011;22480;50.546;12.292;2023-06-14T12:02:57;5.65;;;3.72;;
36457;SDS011;22480;50.546;12.292;2023-06-14T12:05:24;7.22;;;3.08;;
36457;SDS011;22480;50.546;12.292;2023-06-14T12:07:57;4.72;;;3.08;;
36457;SDS011;22480;50.546;12.292;2023-06-14T12:10:27;3.67;;;3.00;;
36457;SDS011;22480;50.546;12.292;2023-06-14T12:12:57;5.47;;;2.60;;
36457;SDS011;22480;50.546;12.292;2023-06-14T12:15:24;4.63;;;2.95;;
36457;SDS011;22480;50.546;12.292;2023-06-14T12:17:53;5.95;;;3.50;;
36457;SDS011;22480;50.546;12.292;2023-06-14T12:20:20;4.25;;;2.83;;
36457;SDS011;22480;50.546;12.292;2023-06-14T12:22:51;4.55;;;2.90;;
36457;SDS011;22480;50.546;12.292;2023-06-14T12:25:27;4.63;;;2.83;;
36457;SDS011;22480;50.546;12.292;2023-06-14T12:28:04;3.88;;;3.53;;
36457;SDS011;22480;50.546;12.292;2023-06-14T12:30:32;6.40;;;3.25;;
36457;SDS011;22480;50.546;12.292;2023-06-14T12:32:58;3.60;;;3.05;;
36457;SDS011;22480;50.546;12.292;2023-06-14T12:35:25;3.03;;;2.72;;
36457;SDS011;22480;50.546;12.292;2023-06-14T12:37:51;5.00;;;2.95;;
36457;SDS011;22480;50.546;12.292;2023-06-14T12:40:17;5.97;;;2.95;;
36457;SDS011;22480;50.546;12.292;2023-06-14T12:42:44;5.65;;;3.58;;
36457;SDS011;22480;50.546;12.292;2023-06-14T12:45:12;4.10;;;2.50;;
36457;SDS011;22480;50.546;12.292;2023-06-14T12:47:38;6.00;;;2.97;;
36457;SDS011;22480;50.546;12.292;2023-06-14T12:50:04;4.95;;;2.47;;
36457;SDS011;22480;50.546;12.292;2023-06-14T12:52:30;4.07;;;3.00;;
36457;SDS011;22480;50.546;12.292;2023-06-14T12:54:56;6.55;;;3.15;;
36457;SDS011;22480;50.546;12.292;2023-06-14T12:57:22;3.90;;;3.08;;
36457;SDS011;22480;50.546;12.292;2023-06-14T12:59:48;3.45;;;2.47;;
36457;SDS011;22480;50.546;12.292;2023-06-14T13:02:17;3.33;;;2.80;;
36457;SDS011;22480;50.546;12.292;2023-06-14T13:04:45;3.17;;;2.72;;
36457;SDS011;22480;50.546;12.292;2023-06-14T13:07:11;4.55;;;2.67;;
36457;SDS011;22480;50.546;12.292;2023-06-14T13:09:37;3.22;;;2.65;;
36457;SDS011;22480;50.546;12.292;2023-06-14T13:12:03;5.93;;;2.50;;
36457;SDS011;22480;50.546;12.292;2023-06-14T13:14:29;3.92;;;2.47;;
36457;SDS011;22480;50.546;12.292;2023-06-14T13:16:55;2.72;;;2.30;;
36457;SDS011;22480;50.546;12.292;2023-06-14T13:19:20;3.22;;;2.20;;
36457;SDS011;22480;50.546;12.292;2023-06-14T13:21:46;3.10;;;2.78;;
36457;SDS011;22480;50.546;12.292;2023-06-14T13:24:12;2.72;;;2.53;;
36457;SDS011;22480;50.546;12.292;2023-06-14T13:26:38;5.78;;;3.05;;
36457;SDS011;22480;50.546;12.292;2023-06-14T13:29:04;2.30;;;2.10;;
36457;SDS011;22480;50.546;12.292;2023-06-14T13:31:30;5.43;;;2.22;;
36457;SDS011;22480;50.546;12.292;2023-06-14T13:33:55;4.47;;;2.50;;
36457;SDS011;22480;50.546;12.292;2023-06-14T13:36:21;2.30;;;2.10;;
36457;SDS011;22480;50.546;12.292;2023-06-14T13:38:47;3.00;;;2.20;;
36457;SDS011;22480;50.546;12.292;2023-06-14T13:41:13;3.17;;;2.10;;
36457;SDS011;22480;50.546;12.292;2023-06-14T13:43:38;3.72;;;2.63;;
36457;SDS011;22480;50.546;12.292;2023-06-14T13:46:04;3.67;;;2.10;;
36457;SDS011;22480;50.546;12.292;2023-06-14T13:48:30;3.42;;;2.30;;
36457;SDS011;22480;50.546;12.292;2023-06-14T13:50:55;2.83;;;2.53;;
36457;SDS011;22480;50.546;12.292;2023-06-14T13:53:22;2.80;;;2.33;;
36457;SDS011;22480;50.546;12.292;2023-06-14T13:55:48;5.07;;;2.90;;
36457;SDS011;22480;50.546;12.292;2023-06-14T13:58:14;2.30;;;2.10;;
36457;SDS011;22480;50.546;12.292;2023-06-14T14:00:40;4.75;;;2.10;;
36457;SDS011;22480;50.546;12.292;2023-06-14T14:03:06;2.53;;;2.00;;
36457;SDS011;22480;50.546;12.292;2023-06-14T14:05:32;3.38;;;1.90;;
36457;SDS011;22480;50.546;12.292;2023-06-14T14:07:58;4.40;;;1.88;;
36457;SDS011;22480;50.546;12.292;2023-06-14T14:10:26;3.60;;;2.03;;
36457;SDS011;22480;50.546;12.292;2023-06-14T14:12:52;2.65;;;1.88;;
36457;SDS011;22480;50.546;12.292;2023-06-14T14:15:18;6.25;;;2.00;;
36457;SDS011;22480;50.546;12.292;2023-06-14T14:17:44;4.55;;;2.05;;
36457;SDS011;22480;50.546;12.292;2023-06-14T14:20:10;3.03;;;2.03;;
36457;SDS011;22480;50.546;12.292;2023-06-14T14:22:43;2.45;;;1.98;;
36457;SDS011;22480;50.546;12.292;2023-06-14T14:25:09;2.00;;;1.80;;
36457;SDS011;22480;50.546;12.292;2023-06-14T14:27:36;3.60;;;1.92;;
36457;SDS011;22480;50.546;12.292;2023-06-14T14:30:02;2.85;;;2.03;;
36457;SDS011;22480;50.546;12.292;2023-06-14T14:32:28;2.40;;;2.20;;
36457;SDS011;22480;50.546;12.292;2023-06-14T14:34:54;3.30;;;2.10;;
36457;SDS011;22480;50.546;12.292;2023-06-14T14:37:20;3.13;;;2.17;;
36457;SDS011;22480;50.546;12.292;2023-06-14T14:39:46;4.80;;;2.40;;
36457;SDS011;22480;50.546;12.292;2023-06-14T14:42:12;4.43;;;2.20;;
36457;SDS011;22480;50.546;12.292;2023-06-14T14:44:38;4.25;;;2.13;;
36457;SDS011;22480;50.546;12.292;2023-06-14T14:47:04;3.67;;;2.33;;
36457;SDS011;22480;50.546;12.292;2023-06-14T14:49:31;5.53;;;2.28;;
36457;SDS011;22480;50.546;12.292;2023-06-14T14:51:57;2.67;;;1.90;;
36457;SDS011;22480;50.546;12.292;2023-06-14T14:54:23;2.08;;;1.88;;
36457;SDS011;22480;50.546;12.292;2023-06-14T14:56:50;3.10;;;2.00;;
36457;SDS011;22480;50.546;12.292;2023-06-14T14:59:16;3.75;;;2.22;;
36457;SDS011;22480;50.546;12.292;2023-06-14T15:01:42;4.00;;;1.85;;